Time;durP1;ratioP1;P1;durP2;ratioP2;P2;SDS_P1;SDS_P2;PMS_P1;PMS_P2;Temp;Humidity;BMP_temperature;BMP_pressure;BME280_temperature;BME280_humidity;BME280_pressure;Samples;Min_cycle;Max_cycle;Signal;HPM_P1;HPM_P2
2021/08/01 00:00:59;;;;;;;3.90;2.97;;;16.10;99.90;;;;;;5068849;28;20383;-86
2021/08/01 00:03:24;;;;;;;4.18;3.20;;;16.20;99.90;;;;;;5066488;28;20378;-84
2021/08/01 00:05:50;;;;;;;3.13;2.77;;;16.20;99.90;;;;;;5050603;28;20385;-84
2021/08/01 00:08:16;;;;;;;5.43;2.88;;;16.20;99.90;;;;;;5065020;28;21133;-86
2021/08/01 00:10:41;;;;;;;4.47;3.00;;;16.20;99.90;;;;;;5068257;28;20378;-85
2021/08/01 00:13:07;;;;;;;4.47;3.10;;;16.20;99.90;;;;;;5050374;28;20379;-82
2021/08/01 00:15:33;;;;;;;4.90;3.03;;;16.20;99.90;;;;;;5051301;28;20378;-84
2021/08/01 00:17:58;;;;;;;4.18;2.97;;;16.20;99.90;;;;;;5065136;28;20434;-84
2021/08/01 00:20:24;;;;;;;3.58;2.90;;;16.20;99.90;;;;;;5065538;28;20374;-85
2021/08/01 00:22:49;;;;;;;4.00;3.23;;;16.20;99.90;;;;;;5050059;28;20872;-84
2021/08/01 00:25:15;;;;;;;4.75;3.63;;;16.10;99.90;;;;;;5067837;28;20370;-84
2021/08/01 00:27:41;;;;;;;5.70;3.37;;;16.10;99.90;;;;;;5066168;28;20370;-84
2021/08/01 00:30:11;;;;;;;3.97;3.17;;;16.00;99.90;;;;;;5066540;28;20465;-84
2021/08/01 00:32:39;;;;;;;3.90;2.97;;;16.00;99.90;;;;;;5053545;28;20386;-83
2021/08/01 00:35:06;;;;;;;4.85;3.10;;;16.00;99.90;;;;;;5051579;28;20386;-84
2021/08/01 00:37:32;;;;;;;3.50;3.20;;;15.90;99.90;;;;;;5053126;28;20405;-83
2021/08/01 00:39:58;;;;;;;3.90;3.38;;;15.90;99.90;;;;;;5054054;28;20410;-86
2021/08/01 00:42:24;;;;;;;6.40;3.30;;;15.90;99.90;;;;;;5055055;28;20446;-83
2021/08/01 00:44:50;;;;;;;4.90;3.60;;;15.90;99.90;;;;;;5056585;28;20460;-88
2021/08/01 00:47:18;;;;;;;5.03;3.13;;;15.90;99.90;;;;;;5054014;28;20854;-88
2021/08/01 00:49:45;;;;;;;5.95;3.42;;;15.80;99.90;;;;;;5053742;28;20371;-87
2021/08/01 00:52:12;;;;;;;5.60;3.60;;;15.80;99.90;;;;;;5052650;28;20379;-85
2021/08/01 00:54:37;;;;;;;4.32;3.58;;;15.80;99.90;;;;;;5071112;28;20864;-82
2021/08/01 00:57:06;;;;;;;6.90;3.70;;;15.80;99.90;;;;;;5053097;28;20393;-85
2021/08/01 00:59:34;;;;;;;3.93;3.17;;;15.70;99.90;;;;;;5055253;28;20440;-85
2021/08/01 01:02:06;;;;;;;5.18;3.40;;;15.70;99.90;;;;;;5053133;28;20401;-85
2021/08/01 01:04:59;;;;;;;4.20;3.70;;;15.70;99.90;;;;;;5052304;28;20379;-89
2021/08/01 01:07:42;;;;;;;4.22;3.42;;;15.60;99.90;;;;;;5055056;28;20393;-85
2021/08/01 01:10:11;;;;;;;5.75;3.45;;;15.70;99.90;;;;;;5052556;28;20390;-85
2021/08/01 01:12:46;;;;;;;4.32;3.92;;;15.70;99.90;;;;;;5052922;28;20383;-82
2021/08/01 01:15:20;;;;;;;6.80;3.97;;;15.60;99.90;;;;;;5070592;28;20370;-84
2021/08/01 01:17:50;;;;;;;6.38;3.50;;;15.60;99.90;;;;;;5052147;28;20455;-83
2021/08/01 01:20:24;;;;;;;4.10;3.67;;;15.60;99.90;;;;;;5052307;28;20487;-85
2021/08/01 01:23:11;;;;;;;4.60;3.38;;;15.60;99.90;;;;;;5052268;28;20390;-85
2021/08/01 01:26:00;;;;;;;7.33;4.13;;;15.60;99.90;;;;;;5052231;28;20383;-88
2021/08/01 01:28:40;;;;;;;5.00;4.00;;;15.60;99.90;;;;;;5052198;28;20468;-86
2021/08/01 01:31:36;;;;;;;5.55;3.85;;;15.50;99.90;;;;;;5052409;28;20382;-83
2021/08/01 01:34:13;;;;;;;4.93;3.70;;;15.50;99.90;;;;;;5052139;28;20382;-84
2021/08/01 01:36:45;;;;;;;5.68;3.63;;;15.40;99.90;;;;;;5069518;28;20394;-86
2021/08/01 01:39:11;;;;;;;4.13;3.67;;;15.40;99.90;;;;;;5051948;28;20370;-86
2021/08/01 01:41:40;;;;;;;4.07;3.70;;;15.40;99.90;;;;;;5051553;28;20774;-84
2021/08/01 01:44:08;;;;;;;5.00;3.90;;;15.30;99.90;;;;;;5051625;28;20925;-86
2021/08/01 01:46:35;;;;;;;4.82;3.85;;;15.30;99.90;;;;;;5051578;28;20413;-88
2021/08/01 01:49:03;;;;;;;5.07;4.10;;;15.30;99.90;;;;;;5052061;28;20421;-87
2021/08/01 01:51:30;;;;;;;6.32;4.75;;;15.30;99.90;;;;;;5051758;28;20385;-85
2021/08/01 01:53:55;;;;;;;4.70;4.30;;;15.20;99.90;;;;;;5051764;28;20773;-86
2021/08/01 01:56:21;;;;;;;7.17;4.30;;;15.30;99.90;;;;;;5051718;28;20661;-85
2021/08/01 01:58:47;;;;;;;6.00;4.10;;;15.30;99.90;;;;;;5068981;28;20394;-84
2021/08/01 02:01:13;;;;;;;4.82;4.40;;;15.40;99.90;;;;;;5066253;28;20732;-85
2021/08/01 02:03:38;;;;;;;4.53;4.13;;;15.30;99.90;;;;;;5051227;28;20456;-86
2021/08/01 02:06:04;;;;;;;4.67;4.23;;;15.30;99.90;;;;;;5051306;28;20425;-86
2021/08/01 02:08:40;;;;;;;4.72;4.22;;;15.20;99.90;;;;;;5051786;28;20386;-83
2021/08/01 02:11:08;;;;;;;5.20;4.70;;;15.20;99.90;;;;;;5051082;28;20867;-86
2021/08/01 02:14:01;;;;;;;6.18;4.68;;;15.20;99.90;;;;;;5051274;28;20405;-85
2021/08/01 02:16:34;;;;;;;5.97;4.57;;;15.10;99.90;;;;;;5058832;28;20433;-85
2021/08/01 02:19:04;;;;;;;5.18;4.60;;;15.10;99.90;;;;;;5051457;28;20384;-84
2021/08/01 02:21:31;;;;;;;5.83;4.90;;;15.10;99.90;;;;;;5050945;28;20379;-85
2021/08/01 02:24:00;;;;;;;6.10;5.03;;;15.10;99.90;;;;;;5051452;28;20382;-87
2021/08/01 02:26:26;;;;;;;6.22;4.90;;;15.10;99.90;;;;;;5069481;28;20414;-87
2021/08/01 02:28:53;;;;;;;5.87;5.13;;;15.00;99.90;;;;;;5069092;28;20382;-88
2021/08/01 02:31:20;;;;;;;5.87;5.27;;;15.00;99.90;;;;;;5072177;28;20449;-88
2021/08/01 02:33:47;;;;;;;5.80;5.20;;;15.00;99.90;;;;;;5051286;28;20382;-87
2021/08/01 02:36:14;;;;;;;7.68;5.47;;;15.00;99.90;;;;;;5069117;28;20405;-86
2021/08/01 02:38:41;;;;;;;5.60;5.00;;;15.10;99.90;;;;;;5051131;28;20458;-85
2021/08/01 02:41:50;;;;;;;5.95;5.40;;;15.00;99.90;;;;;;5069052;28;20374;-86
2021/08/01 02:44:20;;;;;;;5.20;4.70;;;14.90;99.90;;;;;;5068715;28;20370;-85
2021/08/01 02:46:47;;;;;;;7.60;5.28;;;15.00;99.90;;;;;;5052417;28;20476;-85
2021/08/01 02:49:19;;;;;;;6.32;5.38;;;15.00;99.90;;;;;;5050439;28;20400;-85
2021/08/01 02:51:54;;;;;;;5.63;5.13;;;14.90;99.90;;;;;;5050844;28;20378;-87
2021/08/01 02:54:24;;;;;;;6.63;5.63;;;14.90;99.90;;;;;;5050793;28;20386;-86
2021/08/01 02:56:55;;;;;;;7.25;5.45;;;14.90;99.90;;;;;;5051708;28;20495;-87
2021/08/01 02:59:22;;;;;;;6.55;5.28;;;14.80;99.90;;;;;;5054634;28;20390;-85
2021/08/01 03:01:48;;;;;;;6.07;5.53;;;14.80;99.90;;;;;;5054715;28;20424;-87
2021/08/01 03:04:14;;;;;;;7.50;5.78;;;14.70;99.90;;;;;;5054697;28;20370;-88
2021/08/01 03:06:42;;;;;;;6.15;5.50;;;14.70;99.90;;;;;;5054666;28;20370;-88
2021/08/01 03:09:09;;;;;;;5.80;5.30;;;14.70;99.90;;;;;;5054467;28;20390;-87
2021/08/01 03:11:35;;;;;;;7.13;5.97;;;14.70;99.90;;;;;;5054321;28;20409;-84
2021/08/01 03:14:02;;;;;;;5.63;5.13;;;14.70;99.90;;;;;;5072810;28;20417;-86
2021/08/01 03:16:27;;;;;;;6.00;5.40;;;14.70;99.90;;;;;;5054224;28;20447;-85
2021/08/01 03:18:53;;;;;;;6.85;6.18;;;14.60;99.90;;;;;;5072336;28;20370;-88
2021/08/01 03:21:19;;;;;;;6.47;5.87;;;14.60;99.90;;;;;;5054381;28;20705;-87
2021/08/01 03:23:44;;;;;;;7.67;6.07;;;14.60;99.90;;;;;;5072741;28;20408;-86
2021/08/01 03:26:10;;;;;;;6.13;5.57;;;14.60;99.90;;;;;;5054376;28;20378;-86
2021/08/01 03:28:35;;;;;;;6.43;5.80;;;14.50;99.90;;;;;;5072329;28;20414;-89
2021/08/01 03:31:01;;;;;;;6.43;5.70;;;14.60;99.90;;;;;;5054934;28;20427;-85
2021/08/01 03:33:26;;;;;;;6.60;5.87;;;14.60;99.90;;;;;;5054005;28;20811;-85
2021/08/01 03:35:52;;;;;;;8.38;6.30;;;14.60;99.90;;;;;;5072046;28;20374;-84
2021/08/01 03:38:18;;;;;;;7.30;6.33;;;14.60;99.90;;;;;;5054318;28;20382;-86
2021/08/01 03:40:43;;;;;;;8.37;6.70;;;14.60;99.90;;;;;;5071992;28;20465;-84
2021/08/01 03:43:09;;;;;;;7.25;6.55;;;14.60;99.90;;;;;;5072163;28;20379;-85
2021/08/01 03:45:35;;;;;;;8.10;6.67;;;14.60;99.90;;;;;;5053915;28;20375;-88
2021/08/01 03:48:00;;;;;;;7.00;6.30;;;14.70;99.90;;;;;;5072124;28;20389;-86
2021/08/01 03:50:26;;;;;;;7.57;6.50;;;14.70;99.90;;;;;;5072041;28;20382;-82
2021/08/01 03:52:51;;;;;;;7.20;6.50;;;14.70;99.90;;;;;;5053787;28;20508;-86
2021/08/01 03:55:17;;;;;;;6.95;6.10;;;14.70;99.90;;;;;;5053533;28;20371;-87
2021/08/01 03:57:42;;;;;;;6.73;6.07;;;14.70;99.90;;;;;;5071374;28;20398;-85
2021/08/01 04:00:09;;;;;;;8.68;6.22;;;14.70;99.90;;;;;;5053334;28;20389;-86
2021/08/01 04:02:36;;;;;;;7.22;6.53;;;14.70;99.90;;;;;;5071395;28;20398;-89
2021/08/01 04:05:06;;;;;;;8.63;6.53;;;14.80;99.90;;;;;;5071808;28;20374;-87
2021/08/01 04:07:32;;;;;;;7.25;6.47;;;14.80;99.90;;;;;;5054240;28;20387;-84
2021/08/01 04:09:58;;;;;;;8.45;6.82;;;14.90;99.90;;;;;;5070180;28;20390;-88
2021/08/01 04:12:24;;;;;;;6.72;6.13;;;14.90;99.90;;;;;;5070964;28;20767;-85
2021/08/01 04:14:49;;;;;;;7.15;6.45;;;15.00;99.90;;;;;;5071153;28;20398;-83
2021/08/01 04:17:18;;;;;;;6.60;5.90;;;15.20;99.90;;;;;;5053039;28;20487;-85
2021/08/01 04:19:44;;;;;;;6.15;5.55;;;15.20;99.90;;;;;;5053946;28;20385;-84
2021/08/01 04:22:10;;;;;;;7.30;5.68;;;15.30;99.90;;;;;;5055174;28;20375;-84
2021/08/01 04:24:36;;;;;;;7.30;5.85;;;15.30;99.90;;;;;;5053042;28;20890;-88
2021/08/01 04:27:01;;;;;;;6.87;6.07;;;15.40;99.90;;;;;;5070978;28;20374;-85
2021/08/01 04:29:27;;;;;;;6.85;5.85;;;15.40;99.90;;;;;;5052739;28;20401;-88
2021/08/01 04:31:53;;;;;;;6.63;5.90;;;15.40;99.90;;;;;;5070775;28;20384;-87
2021/08/01 04:34:18;;;;;;;6.72;6.07;;;15.50;99.90;;;;;;5069991;28;20374;-85
2021/08/01 04:36:44;;;;;;;6.88;5.30;;;15.50;99.90;;;;;;5070183;28;20777;-84
2021/08/01 04:39:09;;;;;;;6.17;5.57;;;15.60;99.90;;;;;;5070547;28;20472;-86
2021/08/01 04:41:35;;;;;;;7.25;5.30;;;15.70;99.90;;;;;;5070873;28;20362;-86
2021/08/01 04:44:01;;;;;;;6.70;5.70;;;15.80;99.90;;;;;;5052697;28;20879;-86
2021/08/01 04:46:26;;;;;;;8.05;5.22;;;15.90;99.90;;;;;;5052891;28;20473;-84
2021/08/01 04:48:52;;;;;;;6.70;5.63;;;16.00;99.90;;;;;;5070381;28;20378;-87
2021/08/01 04:51:18;;;;;;;5.90;5.30;;;16.10;99.90;;;;;;5052603;28;20385;-86
2021/08/01 04:53:43;;;;;;;6.40;4.77;;;16.40;99.90;;;;;;5052400;28;20382;-88
2021/08/01 04:56:10;;;;;;;6.68;5.22;;;16.50;99.90;;;;;;5053243;28;20398;-85
2021/08/01 04:58:36;;;;;;;5.85;5.20;;;16.70;99.90;;;;;;5052521;28;20747;-88
2021/08/01 05:01:02;;;;;;;6.80;5.68;;;16.70;99.90;;;;;;5070793;28;20370;-87
2021/08/01 05:03:27;;;;;;;7.15;6.20;;;16.70;99.90;;;;;;5070658;28;20447;-85
2021/08/01 05:05:53;;;;;;;6.85;5.30;;;16.70;99.90;;;;;;5052776;28;20863;-85
2021/08/01 05:08:18;;;;;;;6.47;5.77;;;16.70;99.90;;;;;;5070885;28;20685;-87
2021/08/01 05:10:44;;;;;;;6.15;5.50;;;16.80;99.90;;;;;;5052954;28;20424;-85
2021/08/01 05:13:09;;;;;;;5.77;5.17;;;16.80;99.90;;;;;;5070539;28;20728;-85
2021/08/01 05:15:35;;;;;;;6.43;5.60;;;17.00;99.90;;;;;;5052461;28;20461;-84
2021/08/01 05:18:04;;;;;;;7.03;5.80;;;17.00;99.90;;;;;;5070390;28;20406;-86
2021/08/01 05:20:30;;;;;;;6.97;5.23;;;17.10;99.90;;;;;;5052501;28;20727;-86
2021/08/01 05:22:55;;;;;;;8.43;5.97;;;17.20;99.90;;;;;;5052222;28;20428;-86
2021/08/01 05:25:21;;;;;;;6.57;5.53;;;17.20;99.90;;;;;;5052734;28;20740;-90
2021/08/01 05:27:46;;;;;;;6.47;5.87;;;17.30;99.90;;;;;;5052625;28;20461;-87
2021/08/01 05:30:12;;;;;;;5.83;5.23;;;17.40;99.90;;;;;;5051988;28;20473;-85
2021/08/01 05:32:38;;;;;;;7.67;5.37;;;17.40;99.90;;;;;;5052052;28;20381;-84
2021/08/01 05:35:04;;;;;;;7.10;5.40;;;17.40;99.90;;;;;;5069799;28;20416;-87
2021/08/01 05:37:30;;;;;;;7.32;5.32;;;17.40;99.90;;;;;;5061060;28;21206;-86
2021/08/01 05:39:57;;;;;;;5.63;4.80;;;17.50;99.90;;;;;;5069815;28;20386;-87
2021/08/01 05:42:22;;;;;;;5.57;5.00;;;17.60;99.90;;;;;;5069660;28;20397;-86
2021/08/01 05:44:48;;;;;;;5.23;4.40;;;17.80;99.90;;;;;;5051810;28;20435;-86
2021/08/01 05:47:14;;;;;;;4.57;4.15;;;17.90;99.90;;;;;;5069315;28;20884;-87
2021/08/01 05:49:39;;;;;;;6.77;4.83;;;18.00;99.90;;;;;;5069309;28;20417;-86
2021/08/01 05:52:05;;;;;;;4.82;4.38;;;18.20;99.90;;;;;;5051490;28;20420;-84
2021/08/01 05:54:30;;;;;;;5.90;3.60;;;18.30;99.90;;;;;;5051440;28;20378;-85
2021/08/01 05:56:56;;;;;;;6.07;3.83;;;18.40;99.90;;;;;;5051210;28;20405;-84
2021/08/01 05:59:22;;;;;;;5.47;3.80;;;18.60;99.90;;;;;;5069202;28;20394;-86
2021/08/01 06:01:47;;;;;;;4.50;4.10;;;18.60;99.90;;;;;;5051506;28;20882;-89
2021/08/01 06:04:14;;;;;;;5.83;4.00;;;18.70;99.90;;;;;;5051404;28;20374;-87
2021/08/01 06:06:40;;;;;;;4.93;3.77;;;18.90;99.90;;;;;;5051234;28;20405;-83
2021/08/01 06:09:05;;;;;;;6.60;4.07;;;19.00;99.90;;;;;;5068913;28;20378;-86
2021/08/01 06:11:31;;;;;;;3.70;3.30;;;19.00;99.90;;;;;;5052190;28;20375;-85
2021/08/01 06:13:57;;;;;;;4.70;3.92;;;19.00;99.90;;;;;;5052098;28;20378;-84
2021/08/01 06:16:22;;;;;;;4.00;3.63;;;19.00;99.90;;;;;;5069076;28;20481;-86
2021/08/01 06:18:48;;;;;;;4.00;3.63;;;19.10;99.90;;;;;;5068720;28;20374;-86
2021/08/01 06:21:18;;;;;;;4.43;3.65;;;19.20;99.90;;;;;;5050902;28;20464;-84
2021/08/01 06:23:47;;;;;;;6.03;4.00;;;19.30;99.90;;;;;;5050911;28;20376;-85
2021/08/01 06:26:13;;;;;;;4.35;3.95;;;19.40;99.90;;;;;;5050961;28;20397;-85
2021/08/01 06:28:39;;;;;;;5.72;3.75;;;19.60;99.90;;;;;;5050720;28;20784;-87
2021/08/01 06:31:07;;;;;;;4.50;3.80;;;19.60;99.90;;;;;;5050219;28;20374;-86
2021/08/01 06:33:33;;;;;;;4.35;3.72;;;19.70;99.90;;;;;;5050690;28;20416;-84
2021/08/01 06:35:59;;;;;;;5.30;4.10;;;19.90;99.90;;;;;;5050791;28;20378;-84
2021/08/01 06:38:25;;;;;;;4.07;3.70;;;20.00;99.90;;;;;;5050487;28;20779;-86
2021/08/01 06:40:51;;;;;;;7.20;4.35;;;20.00;99.90;;;;;;5051030;28;20943;-87
2021/08/01 06:43:17;;;;;;;5.28;4.40;;;20.20;99.90;;;;;;5068695;28;20366;-86
2021/08/01 06:45:43;;;;;;;7.05;4.60;;;20.20;99.90;;;;;;5068696;28;20385;-84
2021/08/01 06:48:09;;;;;;;5.83;4.30;;;20.30;99.90;;;;;;5050526;28;20914;-86
2021/08/01 06:50:35;;;;;;;6.60;4.20;;;20.20;99.90;;;;;;5069145;28;20875;-87
2021/08/01 06:53:01;;;;;;;8.00;4.22;;;20.20;99.90;;;;;;5050482;28;20400;-84
2021/08/01 06:55:26;;;;;;;7.75;4.45;;;20.20;99.90;;;;;;5050728;28;20846;-85
2021/08/01 06:57:52;;;;;;;5.50;4.33;;;20.30;99.90;;;;;;5068830;28;20402;-88
2021/08/01 07:00:20;;;;;;;4.45;3.70;;;20.10;99.90;;;;;;5050473;28;20366;-87
2021/08/01 07:02:56;;;;;;;6.57;3.90;;;20.20;99.90;;;;;;5050922;28;20500;-86
2021/08/01 07:05:23;;;;;;;4.40;3.75;;;20.10;99.90;;;;;;5048756;28;20386;-84
2021/08/01 07:07:49;;;;;;;5.63;4.20;;;20.00;99.90;;;;;;5046574;28;20407;-85
2021/08/01 07:10:15;;;;;;;3.80;3.50;;;20.00;99.90;;;;;;5064923;28;20385;-84
2021/08/01 07:12:43;;;;;;;4.32;3.47;;;20.00;99.90;;;;;;5065767;28;20485;-84
2021/08/01 07:15:16;;;;;;;6.32;3.70;;;20.10;99.90;;;;;;5046948;28;20970;-83
2021/08/01 07:17:42;;;;;;;7.82;3.72;;;20.10;99.90;;;;;;5029561;28;20420;-87
2021/08/01 07:20:11;;;;;;;5.05;3.75;;;20.30;99.90;;;;;;5067301;28;20424;-86
2021/08/01 07:22:37;;;;;;;5.40;3.75;;;20.50;99.90;;;;;;5050100;28;20382;-85
2021/08/01 07:25:08;;;;;;;5.40;3.83;;;20.80;99.90;;;;;;5068408;28;20385;-86
2021/08/01 07:27:33;;;;;;;5.23;3.60;;;20.90;99.90;;;;;;5050068;28;20443;-87
2021/08/01 07:29:59;;;;;;;5.20;3.65;;;21.10;99.90;;;;;;5068223;28;20994;-85
2021/08/01 07:32:24;;;;;;;5.60;3.73;;;21.40;99.90;;;;;;5067875;28;20393;-83
2021/08/01 07:34:50;;;;;;;4.05;3.38;;;21.60;99.90;;;;;;5049555;28;20393;-88
2021/08/01 07:37:21;;;;;;;5.80;3.90;;;21.90;99.90;;;;;;5067625;28;20410;-85
2021/08/01 07:39:54;;;;;;;5.35;3.38;;;22.20;99.90;;;;;;5048531;28;20721;-88
2021/08/01 07:42:25;;;;;;;4.40;3.40;;;22.50;99.90;;;;;;5064274;28;20390;-84
2021/08/01 07:44:55;;;;;;;5.28;3.17;;;22.90;99.90;;;;;;5050164;28;20785;-86
2021/08/01 07:47:27;;;;;;;5.63;3.78;;;22.70;99.90;;;;;;5050693;28;20752;-79
2021/08/01 07:49:53;;;;;;;5.43;3.50;;;22.40;99.90;;;;;;5050207;28;20883;-80
2021/08/01 07:52:19;;;;;;;6.20;3.75;;;22.20;99.90;;;;;;5070546;28;20389;-80
2021/08/01 07:54:46;;;;;;;6.20;3.45;;;22.20;99.90;;;;;;5069461;28;20393;-79
2021/08/01 07:57:31;;;;;;;4.27;3.30;;;22.20;99.90;;;;;;5071151;28;20519;-80
2021/08/01 08:00:00;;;;;;;5.90;3.30;;;22.20;99.90;;;;;;5053966;28;21076;-77
2021/08/01 08:02:26;;;;;;;5.22;3.10;;;22.20;99.90;;;;;;5070655;28;20409;-79
2021/08/01 08:04:53;;;;;;;4.57;3.20;;;22.20;99.90;;;;;;5070412;28;20744;-80
2021/08/01 08:07:18;;;;;;;4.63;3.53;;;22.10;99.90;;;;;;5070544;28;20414;-81
2021/08/01 08:09:44;;;;;;;4.95;2.95;;;22.10;99.90;;;;;;5070185;28;20394;-79
2021/08/01 08:12:10;;;;;;;3.93;3.00;;;22.10;99.90;;;;;;5069854;28;20381;-77
2021/08/01 08:14:36;;;;;;;3.00;2.78;;;22.20;99.90;;;;;;5070581;28;20370;-80
2021/08/01 08:17:03;;;;;;;4.90;3.10;;;22.40;99.90;;;;;;5070984;28;20895;-80
2021/08/01 08:19:29;;;;;;;5.35;3.22;;;22.30;99.90;;;;;;5071409;28;20472;-81
2021/08/01 08:21:56;;;;;;;3.95;2.60;;;22.20;99.90;;;;;;5070333;28;20793;-80
2021/08/01 08:24:22;;;;;;;4.00;3.13;;;22.20;99.90;;;;;;5070565;28;20370;-79
2021/08/01 08:26:48;;;;;;;3.17;2.88;;;22.20;99.90;;;;;;5052677;28;20394;-79
2021/08/01 08:29:15;;;;;;;3.13;2.80;;;22.30;99.90;;;;;;5052258;28;20390;-80
2021/08/01 08:31:40;;;;;;;2.92;2.63;;;22.20;99.90;;;;;;5070474;28;21077;-80
2021/08/01 08:34:06;;;;;;;5.30;2.97;;;22.40;99.90;;;;;;5070413;28;20455;-79
2021/08/01 08:36:32;;;;;;;4.00;2.70;;;22.60;99.90;;;;;;5052441;28;20398;-81
2021/08/01 08:38:57;;;;;;;4.60;3.00;;;22.60;99.90;;;;;;5070835;28;20363;-79
2021/08/01 08:41:25;;;;;;;2.80;2.58;;;22.50;99.90;;;;;;5052824;28;20388;-78
2021/08/01 08:43:50;;;;;;;3.90;2.90;;;22.50;99.90;;;;;;5070309;28;20378;-80
2021/08/01 08:46:18;;;;;;;4.37;3.00;;;22.60;99.90;;;;;;5069547;28;20443;-80
2021/08/01 08:48:47;;;;;;;3.47;2.75;;;22.50;99.90;;;;;;5068389;28;21181;-79
2021/08/01 08:51:13;;;;;;;3.50;3.00;;;22.40;99.90;;;;;;5051837;28;20500;-80
2021/08/01 08:53:48;;;;;;;5.17;2.80;;;22.40;99.90;;;;;;5069629;28;20424;-80
2021/08/01 08:56:15;;;;;;;3.13;2.53;;;22.30;99.90;;;;;;5049721;28;20931;-80
2021/08/01 08:58:42;;;;;;;3.45;2.40;;;22.30;99.90;;;;;;5067823;28;20448;-79
2021/08/01 09:01:08;;;;;;;4.95;2.63;;;22.30;99.90;;;;;;5054315;28;20408;-79
2021/08/01 09:03:34;;;;;;;6.97;2.65;;;22.40;99.90;;;;;;5069468;28;20436;-81
2021/08/01 09:06:00;;;;;;;3.30;2.50;;;22.40;99.90;;;;;;5069515;28;20371;-81
2021/08/01 09:08:29;;;;;;;3.00;2.10;;;22.50;99.90;;;;;;5069102;28;20418;-79
2021/08/01 09:10:55;;;;;;;2.70;2.45;;;22.70;99.90;;;;;;5069940;28;20469;-81
2021/08/01 09:13:45;;;;;;;8.30;3.10;;;22.70;99.90;;;;;;5069022;28;20867;-80
2021/08/01 09:16:12;;;;;;;4.82;2.80;;;22.60;99.90;;;;;;5069747;28;20397;-78
2021/08/01 09:18:37;;;;;;;4.68;2.25;;;22.60;99.90;;;;;;5069656;28;20374;-78
2021/08/01 09:21:03;;;;;;;4.27;2.53;;;22.40;99.90;;;;;;5070288;28;20898;-81
2021/08/01 09:23:29;;;;;;;3.23;2.50;;;22.50;99.90;;;;;;5070135;28;20867;-81
2021/08/01 09:26:01;;;;;;;4.67;2.53;;;22.60;99.90;;;;;;5069824;28;20432;-78
2021/08/01 09:28:28;;;;;;;4.00;2.40;;;22.80;99.90;;;;;;5068878;28;20370;-78
2021/08/01 09:31:05;;;;;;;7.65;2.65;;;23.10;99.90;;;;;;5050543;28;20393;-79
2021/08/01 09:33:31;;;;;;;2.40;2.20;;;23.30;99.90;;;;;;5068860;28;20446;-81
2021/08/01 09:36:18;;;;;;;3.78;2.42;;;23.10;99.90;;;;;;5068310;28;20377;-82
2021/08/01 09:38:50;;;;;;;3.97;2.60;;;22.80;99.90;;;;;;5066801;28;20370;-81
2021/08/01 09:41:33;;;;;;;2.60;2.20;;;22.60;99.90;;;;;;5065397;28;20460;-81
2021/08/01 09:44:08;;;;;;;2.90;2.50;;;22.50;99.90;;;;;;5066822;28;20728;-80
2021/08/01 09:46:48;;;;;;;4.83;2.43;;;22.50;99.90;;;;;;5068236;28;20385;-81
2021/08/01 09:49:19;;;;;;;3.22;2.38;;;22.30;99.90;;;;;;5067921;28;20379;-82
2021/08/01 09:51:45;;;;;;;3.40;2.67;;;22.30;99.90;;;;;;5068926;28;20417;-81
2021/08/01 09:54:12;;;;;;;2.50;2.30;;;22.30;99.90;;;;;;5068343;28;20378;-78
2021/08/01 09:56:38;;;;;;;3.70;2.60;;;22.20;99.90;;;;;;5068831;28;20412;-79
2021/08/01 09:59:20;;;;;;;3.33;2.50;;;22.40;99.90;;;;;;5067494;28;20389;-79
2021/08/01 10:01:50;;;;;;;4.63;2.33;;;22.50;99.90;;;;;;5066094;28;20436;-79
2021/08/01 10:04:37;;;;;;;4.30;2.40;;;22.70;99.90;;;;;;5068614;28;20457;-80
2021/08/01 10:07:07;;;;;;;4.43;2.35;;;22.90;99.90;;;;;;5065592;28;20412;-79
2021/08/01 10:09:35;;;;;;;3.28;2.78;;;23.00;99.90;;;;;;5049966;28;20422;-80
2021/08/01 10:12:01;;;;;;;3.55;2.63;;;22.90;99.90;;;;;;5066844;28;20473;-79
2021/08/01 10:14:28;;;;;;;4.28;2.90;;;22.80;99.90;;;;;;5067302;28;20374;-79
2021/08/01 10:16:55;;;;;;;3.83;2.42;;;22.80;99.90;;;;;;5048180;28;20395;-79
2021/08/01 10:19:21;;;;;;;3.78;2.45;;;22.80;99.90;;;;;;5065892;28;20867;-80
2021/08/01 10:21:50;;;;;;;3.70;2.80;;;22.80;99.90;;;;;;5066916;28;20370;-80
2021/08/01 10:24:23;;;;;;;3.92;2.75;;;22.70;99.90;;;;;;5068930;28;20465;-78
2021/08/01 10:26:52;;;;;;;4.05;2.50;;;22.50;99.90;;;;;;5068645;28;20374;-80
2021/08/01 10:29:40;;;;;;;3.58;2.63;;;22.50;99.90;;;;;;5068680;28;20865;-78
2021/08/01 10:32:08;;;;;;;3.78;2.70;;;22.60;99.90;;;;;;5069488;28;20374;-78
2021/08/01 10:34:58;;;;;;;3.30;2.85;;;22.70;99.90;;;;;;5066027;28;20395;-82
2021/08/01 10:37:26;;;;;;;7.10;3.03;;;22.70;99.90;;;;;;5065650;28;20405;-82
2021/08/01 10:39:53;;;;;;;7.65;2.78;;;23.00;99.90;;;;;;5067873;28;20453;-81
2021/08/01 10:42:23;;;;;;;5.10;2.70;;;23.20;99.90;;;;;;5067876;28;20887;-77
2021/08/01 10:44:49;;;;;;;5.30;2.67;;;23.20;99.90;;;;;;5068159;28;20370;-80
2021/08/01 10:47:16;;;;;;;5.25;2.85;;;23.30;99.90;;;;;;5067929;28;20467;-79
2021/08/01 10:49:44;;;;;;;3.25;2.53;;;23.30;99.90;;;;;;5067686;28;20386;-82
2021/08/01 10:52:12;;;;;;;4.00;2.78;;;23.20;99.90;;;;;;5067729;28;20397;-80
2021/08/01 10:55:01;;;;;;;3.20;2.50;;;23.30;99.90;;;;;;5066493;28;20895;-81
2021/08/01 10:57:28;;;;;;;4.10;2.80;;;23.30;99.90;;;;;;5048465;28;20483;-81
2021/08/01 10:59:56;;;;;;;3.63;2.80;;;23.40;99.90;;;;;;5048639;28;20450;-80
2021/08/01 11:02:23;;;;;;;4.65;3.10;;;23.50;99.90;;;;;;5048447;28;20382;-82
2021/08/01 11:04:51;;;;;;;4.78;2.72;;;23.70;99.90;;;;;;5048607;28;20380;-81
2021/08/01 11:07:39;;;;;;;4.53;2.70;;;23.70;99.90;;;;;;5048744;28;20387;-79
2021/08/01 11:10:07;;;;;;;3.72;2.78;;;23.60;99.90;;;;;;5048033;28;20379;-80
2021/08/01 11:12:44;;;;;;;3.00;2.67;;;23.60;99.90;;;;;;5058333;28;20386;-81
2021/08/01 11:15:12;;;;;;;3.95;2.63;;;23.70;99.90;;;;;;5048078;28;20854;-83
2021/08/01 11:17:40;;;;;;;3.95;2.50;;;23.90;99.90;;;;;;5049763;28;20398;-81
2021/08/01 11:20:29;;;;;;;3.10;2.67;;;24.30;99.90;;;;;;5070799;28;20468;-81
2021/08/01 11:22:56;;;;;;;3.92;2.50;;;24.80;99.90;;;;;;5058209;28;20739;-81
2021/08/01 11:25:24;;;;;;;4.25;2.58;;;25.00;99.90;;;;;;5069806;28;20977;-82
2021/08/01 11:28:07;;;;;;;3.15;2.35;;;25.20;99.90;;;;;;5071027;28;20888;-81
2021/08/01 11:30:54;;;;;;;6.78;2.70;;;24.90;99.90;;;;;;5051207;28;20413;-80
2021/08/01 11:33:30;;;;;;;7.00;2.50;;;24.90;99.90;;;;;;5070960;28;20378;-78
2021/08/01 11:36:13;;;;;;;5.00;2.60;;;25.10;99.90;;;;;;5068767;28;20963;-81
2021/08/01 11:38:48;;;;;;;4.68;2.50;;;25.20;99.90;;;;;;5069564;28;20405;-79
2021/08/01 11:41:38;;;;;;;3.45;2.60;;;25.10;99.90;;;;;;5068282;28;20941;-81
2021/08/01 11:44:17;;;;;;;3.63;2.60;;;24.80;99.90;;;;;;5070158;28;20391;-79
2021/08/01 11:47:05;;;;;;;5.07;2.67;;;24.90;99.90;;;;;;5065652;28;21978;-80
2021/08/01 11:49:48;;;;;;;3.85;2.60;;;24.70;99.90;;;;;;5068571;28;20401;-82
2021/08/01 11:52:44;;;;;;;4.40;2.53;;;24.50;99.90;;;;;;5070509;28;20478;-80
2021/08/01 11:55:15;;;;;;;6.22;2.70;;;24.40;99.90;;;;;;5068673;28;20496;-80
2021/08/01 11:57:42;;;;;;;4.45;2.55;;;24.40;99.90;;;;;;5069124;28;20413;-80
2021/08/01 12:00:08;;;;;;;4.70;2.85;;;24.30;99.90;;;;;;5070139;28;20418;-80
2021/08/01 12:02:34;;;;;;;5.60;2.67;;;24.00;99.90;;;;;;5070170;28;20407;-80
2021/08/01 12:05:00;;;;;;;3.45;2.55;;;23.80;99.90;;;;;;5070229;28;20377;-82
2021/08/01 12:07:43;;;;;;;5.10;2.80;;;23.80;99.90;;;;;;5070382;28;20883;-79
2021/08/01 12:10:15;;;;;;;3.38;2.80;;;23.70;99.90;;;;;;5071352;28;20732;-81
2021/08/01 12:12:41;;;;;;;4.28;2.83;;;23.50;99.90;;;;;;5052957;28;20395;-78
2021/08/01 12:15:06;;;;;;;5.37;2.70;;;23.30;99.90;;;;;;5070926;28;20366;-78
2021/08/01 12:17:35;;;;;;;3.78;2.88;;;23.20;99.90;;;;;;5052497;28;20437;-81
2021/08/01 12:20:02;;;;;;;4.22;2.70;;;23.10;99.90;;;;;;5071120;28;20374;-79
2021/08/01 12:22:27;;;;;;;4.05;2.80;;;23.00;99.90;;;;;;5053036;28;20802;-82
2021/08/01 12:24:57;;;;;;;3.57;2.90;;;22.90;99.90;;;;;;5071047;28;20382;-78
2021/08/01 12:27:25;;;;;;;3.22;2.78;;;22.90;99.90;;;;;;5070851;28;20373;-79
2021/08/01 12:29:55;;;;;;;4.38;3.40;;;22.90;99.90;;;;;;5051083;28;20382;-80
2021/08/01 12:32:28;;;;;;;4.38;2.78;;;22.70;99.90;;;;;;5068993;28;20378;-83
2021/08/01 12:35:13;;;;;;;3.33;3.00;;;22.60;99.90;;;;;;5070446;28;20366;-82
2021/08/01 12:37:57;;;;;;;3.88;3.05;;;22.50;99.90;;;;;;5070641;28;20505;-81
2021/08/01 12:40:43;;;;;;;4.18;3.03;;;22.70;99.90;;;;;;5069962;28;20436;-79
2021/08/01 12:43:10;;;;;;;3.90;3.33;;;23.00;99.90;;;;;;5070482;28;20386;-79
2021/08/01 12:45:41;;;;;;;4.90;3.28;;;23.00;99.90;;;;;;5066876;28;20424;-80
2021/08/01 12:48:10;;;;;;;3.75;3.30;;;23.10;99.90;;;;;;5069613;28;20863;-81
2021/08/01 12:50:39;;;;;;;4.70;3.15;;;23.30;99.90;;;;;;5066782;28;20436;-80
2021/08/01 12:53:05;;;;;;;4.60;3.17;;;23.40;99.90;;;;;;5069495;28;20992;-80
2021/08/01 12:55:31;;;;;;;4.07;3.22;;;23.60;99.90;;;;;;5069490;28;20378;-80
2021/08/01 12:57:59;;;;;;;4.00;3.00;;;23.80;99.90;;;;;;5069068;28;20409;-79